createdAt,value
2023-07-21T00:03:53.665Z,19.55
2023-07-21T00:08:59.482Z,19.57
2023-07-21T00:14:02.972Z,19.62
2023-07-21T00:19:07.946Z,19.57
2023-07-21T00:24:12.499Z,19.67
2023-07-21T00:29:15.617Z,19.64
2023-07-21T00:34:18.606Z,19.69
2023-07-21T00:39:22.947Z,19.59
2023-07-21T00:44:25.852Z,19.62
2023-07-21T00:49:28.911Z,19.58
2023-07-21T00:54:33.671Z,19.48
2023-07-21T00:59:37.010Z,19.46
2023-07-21T01:04:40.601Z,19.52
2023-07-21T01:09:46.296Z,19.62
2023-07-21T01:14:50.858Z,19.63
2023-07-21T01:19:54.254Z,19.41
2023-07-21T01:25:09.128Z,19.53
2023-07-21T01:30:14.520Z,19.45
2023-07-21T01:35:19.207Z,19.43
2023-07-21T01:40:23.758Z,19.26
2023-07-21T01:45:26.888Z,19.27
2023-07-21T01:50:31.726Z,19.06
2023-07-21T01:55:40.052Z,18.89
2023-07-21T02:00:51.444Z,19.10
2023-07-21T02:05:55.284Z,19.14
2023-07-21T02:11:00.148Z,19.04
2023-07-21T02:16:25.400Z,19.04
2023-07-21T02:21:28.659Z,19.10
2023-07-21T02:26:34.051Z,19.05
2023-07-21T02:31:37.133Z,19.08
2023-07-21T02:36:40.304Z,18.87
2023-07-21T02:41:44.593Z,18.92
2023-07-21T02:46:47.552Z,18.82
2023-07-21T02:51:50.427Z,18.79
2023-07-21T02:56:56.682Z,18.71
2023-07-21T03:02:00.879Z,18.58
2023-07-21T03:07:13.002Z,18.26
2023-07-21T03:12:20.715Z,18.18
2023-07-21T03:17:42.173Z,17.94
2023-07-21T03:22:45.940Z,17.98
2023-07-21T03:27:51.775Z,17.90
2023-07-21T03:32:58.115Z,18.02
2023-07-21T03:38:01.928Z,17.96
2023-07-21T03:43:06.980Z,17.77
2023-07-21T03:48:11.898Z,17.57
2023-07-21T03:53:26.598Z,17.62
2023-07-21T03:58:36.097Z,17.45
2023-07-21T04:03:39.078Z,17.26
2023-07-21T04:08:42.744Z,17.63
2023-07-21T04:13:47.044Z,17.56
2023-07-21T04:18:50.026Z,17.32
2023-07-21T04:23:53.387Z,17.60
2023-07-21T04:28:59.138Z,17.87
2023-07-21T04:34:02.419Z,17.88
2023-07-21T04:39:05.753Z,17.95
2023-07-21T04:44:10.387Z,17.80
2023-07-21T04:49:14.497Z,18.09
2023-07-21T04:54:21.442Z,18.24
2023-07-21T04:59:28.612Z,18.45
2023-07-21T05:04:31.997Z,18.93
2023-07-21T05:09:35.239Z,19.35
2023-07-21T05:14:46.329Z,19.62
2023-07-21T05:20:09.479Z,19.95
2023-07-21T05:25:31.200Z,20.18
2023-07-21T05:30:36.367Z,20.57
2023-07-21T05:35:39.709Z,20.63
2023-07-21T05:40:58.869Z,20.95
2023-07-21T05:46:06.967Z,20.58
2023-07-21T05:51:15.020Z,20.95
2023-07-21T05:56:21.277Z,20.21
2023-07-21T06:01:35.877Z,20.97
2023-07-21T06:06:39.513Z,21.11
2023-07-21T06:11:50.925Z,21.23
2023-07-21T06:17:27.777Z,20.93
2023-07-21T06:22:31.118Z,21.26
2023-07-21T06:27:34.113Z,21.36
2023-07-21T06:32:38.697Z,21.57
2023-07-21T06:37:46.656Z,20.82
2023-07-21T06:43:06.221Z,21.76
2023-07-21T06:48:14.016Z,22.14
2023-07-21T06:53:37.393Z,21.97
2023-07-21T06:58:40.953Z,22.30
2023-07-21T07:03:48.294Z,23.13
2023-07-21T07:08:53.909Z,23.20
2023-07-21T07:13:56.890Z,23.97
2023-07-21T07:19:02.304Z,23.92
2023-07-21T07:24:06.250Z,23.53
2023-07-21T07:29:09.343Z,23.96
2023-07-21T07:34:13.742Z,24.06
2023-07-21T07:39:16.847Z,24.06
2023-07-21T07:44:20.530Z,24.12
2023-07-21T07:49:25.563Z,23.51
2023-07-21T07:54:28.578Z,23.87
2023-07-21T07:59:31.559Z,23.67
2023-07-21T08:04:35.978Z,23.72
2023-07-21T08:09:39.264Z,24.11
2023-07-21T08:14:42.279Z,24.38
2023-07-21T08:19:47.067Z,24.65
2023-07-21T08:24:50.112Z,24.48
2023-07-21T08:29:53.107Z,24.72
2023-07-21T08:34:57.592Z,24.88
2023-07-21T08:40:00.544Z,24.76
2023-07-21T08:45:06.144Z,24.38
2023-07-21T08:50:11.536Z,23.67
2023-07-21T08:55:14.637Z,23.58
2023-07-21T09:00:18.890Z,23.31
2023-07-21T09:05:23.489Z,24.22
2023-07-21T09:10:32.334Z,25.61
2023-07-21T09:15:35.318Z,24.54
2023-07-21T09:20:40.106Z,25.05
2023-07-21T09:25:50.772Z,24.29
2023-07-21T09:30:54.850Z,25.21
2023-07-21T09:36:10.369Z,24.85
2023-07-21T09:41:14.681Z,24.83
2023-07-21T09:46:18.727Z,23.83
2023-07-21T09:51:23.283Z,23.91
2023-07-21T09:56:26.879Z,24.88
2023-07-21T10:01:31.984Z,25.19
2023-07-21T10:06:36.931Z,24.02
2023-07-21T10:11:44.828Z,25.03
2023-07-21T10:16:48.013Z,24.03
2023-07-21T10:21:53.848Z,24.22
2023-07-21T10:26:57.731Z,24.83
2023-07-21T10:32:02.063Z,23.63
2023-07-21T10:37:06.909Z,22.55
2023-07-21T10:42:11.200Z,23.06
2023-07-21T10:47:15.418Z,23.63
2023-07-21T10:52:20.383Z,22.53
2023-07-21T10:57:23.340Z,22.90
2023-07-21T11:02:27.556Z,23.42
2023-07-21T11:07:32.170Z,23.04
2023-07-21T11:12:35.310Z,23.54
2023-07-21T11:17:38.293Z,24.64
2023-07-21T11:22:43.428Z,24.58
2023-07-21T11:27:48.031Z,23.96
2023-07-21T11:33:11.540Z,23.65
2023-07-21T11:38:16.677Z,24.20
2023-07-21T11:43:19.697Z,25.52
2023-07-21T11:48:24.193Z,24.59
2023-07-21T11:53:28.704Z,24.82
2023-07-21T11:58:32.380Z,24.88
2023-07-21T12:03:36.664Z,24.78
2023-07-21T12:08:42.281Z,25.29
2023-07-21T12:13:45.400Z,24.75
2023-07-21T12:18:48.501Z,25.08
2023-07-21T12:23:52.909Z,25.29
2023-07-21T12:28:56.751Z,24.15
2023-07-21T12:34:00.195Z,23.90
2023-07-21T12:39:05.722Z,24.21
2023-07-21T12:44:10.026Z,25.37
2023-07-21T12:49:13.714Z,25.84
2023-07-21T12:54:18.161Z,25.26
2023-07-21T12:59:21.212Z,25.35
2023-07-21T13:04:24.335Z,24.70
2023-07-21T13:09:28.680Z,24.64
2023-07-21T13:14:32.812Z,24.29
2023-07-21T13:19:35.849Z,24.21
2023-07-21T13:24:40.431Z,24.11
2023-07-21T13:29:43.387Z,23.77
2023-07-21T13:34:46.305Z,24.07
2023-07-21T13:39:50.662Z,24.19
2023-07-21T13:44:53.705Z,24.29
2023-07-21T13:49:56.920Z,24.38
2023-07-21T13:55:01.236Z,23.90
2023-07-21T14:00:06.536Z,23.13
2023-07-21T14:05:15.222Z,23.63
2023-07-21T14:10:19.728Z,23.56
2023-07-21T14:15:22.807Z,23.63
2023-07-21T14:20:25.968Z,24.24
2023-07-21T14:25:30.320Z,24.08
2023-07-21T14:30:33.442Z,24.45
2023-07-21T14:35:36.504Z,24.61
2023-07-21T14:40:40.849Z,23.82
2023-07-21T14:45:44.477Z,24.30
2023-07-21T14:50:48.520Z,23.52
2023-07-21T14:55:53.176Z,22.88
2023-07-21T15:00:56.266Z,23.08
2023-07-21T15:05:59.352Z,24.08
2023-07-21T15:11:04.296Z,23.93
2023-07-21T15:16:07.393Z,24.02
2023-07-21T15:21:10.446Z,24.72
2023-07-21T15:26:14.973Z,24.42
2023-07-21T15:31:18.158Z,24.23
2023-07-21T15:36:21.221Z,23.49
2023-07-21T15:41:25.998Z,23.95
2023-07-21T15:46:29.862Z,23.48
2023-07-21T15:51:33.160Z,22.98
2023-07-21T15:56:37.613Z,22.48
2023-07-21T16:01:40.661Z,22.11
2023-07-21T16:06:43.691Z,22.26
2023-07-21T16:11:48.056Z,23.08
2023-07-21T16:16:51.444Z,22.07
2023-07-21T16:21:54.623Z,22.26
2023-07-21T16:26:59.022Z,22.58
2023-07-21T16:32:02.709Z,22.51
2023-07-21T16:37:07.805Z,22.83
2023-07-21T16:42:15.837Z,22.38
2023-07-21T16:47:18.691Z,22.49
2023-07-21T16:52:22.518Z,22.54
2023-07-21T16:57:26.997Z,22.08
2023-07-21T17:02:32.242Z,22.02
2023-07-21T17:07:36.237Z,21.78
2023-07-21T17:12:48.452Z,21.53
2023-07-21T17:17:51.748Z,21.31
2023-07-21T17:22:55.031Z,21.23
2023-07-21T17:27:59.617Z,21.45
2023-07-21T17:33:02.759Z,20.96
2023-07-21T17:38:05.913Z,21.06
2023-07-21T17:43:11.249Z,21.38
2023-07-21T17:48:14.490Z,20.92
2023-07-21T17:53:17.821Z,21.06
2023-07-21T17:58:24.336Z,20.87
2023-07-21T18:03:28.135Z,20.88
2023-07-21T18:08:31.360Z,20.81
2023-07-21T18:13:36.396Z,20.45
2023-07-21T18:18:39.574Z,19.98
2023-07-21T18:23:42.775Z,20.37
2023-07-21T18:28:47.271Z,20.51
2023-07-21T18:33:50.421Z,19.87
2023-07-21T18:38:54.047Z,20.02
2023-07-21T18:43:58.485Z,20.15
2023-07-21T18:49:01.549Z,19.93
2023-07-21T18:54:04.617Z,19.94
2023-07-21T18:59:09.118Z,20.04
2023-07-21T19:04:12.121Z,19.75
2023-07-21T19:09:15.698Z,19.85
2023-07-21T19:14:20.236Z,19.79
2023-07-21T19:19:23.302Z,19.67
2023-07-21T19:24:26.546Z,19.35
2023-07-21T19:29:31.158Z,19.29
2023-07-21T19:34:34.809Z,19.43
2023-07-21T19:39:38.179Z,19.37
2023-07-21T19:44:43.291Z,19.28
2023-07-21T19:49:46.862Z,18.98
2023-07-21T19:54:49.877Z,19.06
2023-07-21T19:59:54.282Z,19.43
2023-07-21T20:04:57.833Z,19.26
2023-07-21T20:10:01.048Z,19.06
2023-07-21T20:15:06.834Z,19.16
2023-07-21T20:20:10.810Z,19.72
2023-07-21T20:25:14.100Z,19.77
2023-07-21T20:30:18.700Z,19.49
2023-07-21T20:35:21.716Z,19.57
2023-07-21T20:40:24.668Z,19.60
2023-07-21T20:45:29.309Z,19.75
2023-07-21T20:50:33.677Z,19.71
2023-07-21T20:55:36.631Z,19.65
2023-07-21T21:00:41.143Z,19.51
2023-07-21T21:05:44.176Z,19.70
2023-07-21T21:10:47.121Z,19.63
2023-07-21T21:15:53.208Z,19.56
2023-07-21T21:20:56.330Z,19.35
2023-07-21T21:25:59.289Z,18.89
2023-07-21T21:31:04.060Z,18.88
2023-07-21T21:36:07.134Z,18.70
2023-07-21T21:41:10.100Z,18.51
2023-07-21T21:46:14.596Z,18.52
2023-07-21T21:51:18.722Z,18.54
2023-07-21T21:56:24.608Z,18.51
2023-07-21T22:01:30.758Z,18.63
2023-07-21T22:06:34.671Z,18.64
2023-07-21T22:11:37.584Z,18.62
2023-07-21T22:16:41.871Z,18.82
2023-07-21T22:21:44.723Z,18.98
2023-07-21T22:26:47.744Z,18.98
2023-07-21T22:31:52.257Z,18.80
2023-07-21T22:36:55.344Z,18.66
2023-07-21T22:41:58.353Z,18.64
2023-07-21T22:47:02.603Z,18.55
2023-07-21T22:52:06.218Z,18.48
2023-07-21T22:57:09.280Z,18.32
2023-07-21T23:02:14.045Z,18.55
2023-07-21T23:07:17.064Z,18.55
2023-07-21T23:12:20.082Z,18.55
2023-07-21T23:17:24.952Z,18.38
2023-07-21T23:22:27.949Z,18.70
2023-07-21T23:27:31.021Z,18.85
2023-07-21T23:32:35.455Z,18.84
2023-07-21T23:37:38.884Z,18.90
2023-07-21T23:42:43.170Z,18.88
2023-07-21T23:47:48.360Z,19.00
2023-07-21T23:52:51.627Z,19.06
2023-07-21T23:57:54.574Z,19.09
